Lake Cable, Ohio
Current Conditions -  °F | °C
As of 1:51 PM on Sunday 21 Dec 2014 (Local Time) from KCAK Reporting Station
Haze Haze  
Wind Chill: 31°   Ceiling: 2000
Heat Index: 31°   Visibility: 6mi
Dew Point: 22°   Wind: 3mph
Humidity: 69%   Direction: 180°S
Pressure: 30.25"   Gusts: NA
Location:  40.8509°N, 81.4472°W
Report Text: KCAK 211851Z 18003KT 6SM HZ OVC020 M01/M06 A3025 RMK AO2 SLP258 T10061056
Loading
Personal Weather Stations






























Interactive Weather Map New forecast layout! Learn more

10-Day Weather Forecast

Advertisements
Track Severe Weather on mobile